createdAt,value
2022-07-27T00:04:06.132Z,100
2022-07-27T00:14:06.036Z,100
2022-07-27T00:24:06.036Z,100
2022-07-27T00:34:06.008Z,100
2022-07-27T00:44:06.041Z,100
2022-07-27T00:54:06.005Z,100
2022-07-27T01:04:05.985Z,100
2022-07-27T01:14:05.976Z,100
2022-07-27T01:24:05.965Z,100
2022-07-27T01:34:05.949Z,100
2022-07-27T01:54:05.914Z,100
2022-07-27T02:04:05.930Z,100
2022-07-27T02:14:05.907Z,100
2022-07-27T02:24:05.880Z,100
2022-07-27T02:34:05.897Z,100
2022-07-27T02:44:05.880Z,100
2022-07-27T02:54:05.860Z,100
2022-07-27T03:04:05.888Z,100
2022-07-27T03:14:05.846Z,100
2022-07-27T03:24:05.813Z,100
2022-07-27T03:34:05.820Z,100
2022-07-27T03:44:05.814Z,100
2022-07-27T03:54:05.825Z,100
2022-07-27T04:04:05.763Z,100
2022-07-27T04:14:05.734Z,100
2022-07-27T04:24:05.756Z,100
2022-07-27T04:34:05.771Z,100
2022-07-27T04:44:05.716Z,100
2022-07-27T04:54:05.714Z,100
2022-07-27T05:04:05.818Z,100
2022-07-27T05:14:05.740Z,100
2022-07-27T05:24:05.694Z,100
2022-07-27T05:34:05.663Z,100
2022-07-27T05:44:05.657Z,100
2022-07-27T05:54:05.671Z,100
2022-07-27T06:04:05.656Z,100
2022-07-27T06:14:05.644Z,100
2022-07-27T06:24:05.603Z,100
2022-07-27T06:34:06.247Z,100
2022-07-27T06:44:05.588Z,100
2022-07-27T06:54:05.582Z,100
2022-07-27T07:04:05.634Z,100
2022-07-27T07:14:05.558Z,100
2022-07-27T07:24:05.538Z,100
2022-07-27T07:34:05.553Z,100
2022-07-27T07:44:05.574Z,100
2022-07-27T07:54:05.529Z,100
2022-07-27T08:04:05.481Z,100
2022-07-27T08:14:05.494Z,98
2022-07-27T08:34:05.464Z,99
2022-07-27T08:44:13.151Z,89
2022-07-27T08:54:05.443Z,91
2022-07-27T09:04:05.442Z,88
2022-07-27T09:14:05.442Z,88
2022-07-27T09:24:13.356Z,85
2022-07-27T09:34:05.391Z,86
2022-07-27T09:44:30.426Z,85
2022-07-27T09:54:05.403Z,80
2022-07-27T10:04:05.435Z,79
2022-07-27T10:14:05.356Z,78
2022-07-27T10:24:05.338Z,76
2022-07-27T10:34:05.339Z,74
2022-07-27T10:44:05.310Z,77
2022-07-27T10:54:12.643Z,76
2022-07-27T11:04:05.327Z,78
2022-07-27T11:14:05.285Z,72
2022-07-27T11:24:05.273Z,73
2022-07-27T11:34:05.253Z,65
2022-07-27T11:44:05.260Z,60
2022-07-27T11:54:05.234Z,60
2022-07-27T12:04:05.257Z,63
2022-07-27T12:14:05.213Z,64
2022-07-27T12:24:05.212Z,70
2022-07-27T12:34:06.292Z,72
2022-07-27T12:44:05.181Z,65
2022-07-27T12:54:05.191Z,63
2022-07-27T13:04:05.186Z,63
2022-07-27T13:14:05.150Z,64
2022-07-27T13:24:05.132Z,60
2022-07-27T13:34:05.185Z,55
2022-07-27T13:44:05.105Z,56
2022-07-27T13:54:05.104Z,56
2022-07-27T14:04:05.082Z,65
2022-07-27T14:14:05.050Z,66
2022-07-27T14:24:05.065Z,72
2022-07-27T14:34:05.064Z,73
2022-07-27T14:44:05.043Z,75
2022-07-27T14:54:05.027Z,71
2022-07-27T15:04:04.994Z,67
2022-07-27T15:14:05.393Z,71
2022-07-27T15:24:04.985Z,72
2022-07-27T15:34:04.978Z,71
2022-07-27T15:44:04.954Z,79
2022-07-27T15:54:04.948Z,100
2022-07-27T16:04:05.091Z,100
2022-07-27T16:14:04.921Z,100
2022-07-27T16:24:04.901Z,100
2022-07-27T16:34:04.902Z,100
2022-07-27T16:44:04.894Z,100
2022-07-27T16:54:04.868Z,100
2022-07-27T17:04:04.886Z,100
2022-07-27T17:14:04.858Z,100
2022-07-27T17:24:04.830Z,100
2022-07-27T17:34:04.833Z,100
2022-07-27T17:44:04.879Z,100
2022-07-27T17:54:04.884Z,100
2022-07-27T18:04:04.834Z,100
2022-07-27T18:14:04.816Z,100
2022-07-27T18:24:04.795Z,100
2022-07-27T18:34:07.898Z,100
2022-07-27T18:44:04.755Z,100
2022-07-27T18:54:04.744Z,100
2022-07-27T19:04:04.732Z,100
2022-07-27T19:14:04.737Z,100
2022-07-27T19:24:04.715Z,100
2022-07-27T19:34:04.717Z,100
2022-07-27T19:44:04.691Z,100
2022-07-27T19:54:04.729Z,100
2022-07-27T20:04:04.647Z,100
2022-07-27T20:14:04.659Z,100
2022-07-27T20:24:04.653Z,100
2022-07-27T20:34:04.657Z,100
2022-07-27T20:44:04.653Z,100
2022-07-27T20:54:04.648Z,100
2022-07-27T21:04:04.616Z,100
2022-07-27T21:14:04.631Z,100
2022-07-27T21:24:04.590Z,100
2022-07-27T21:34:04.575Z,100
2022-07-27T21:44:04.608Z,100
2022-07-27T21:54:04.585Z,100
2022-07-27T22:04:04.660Z,100
2022-07-27T22:14:04.551Z,100
2022-07-27T22:24:04.547Z,100
2022-07-27T22:34:04.517Z,100
2022-07-27T22:44:04.529Z,100
2022-07-27T22:54:04.519Z,100
2022-07-27T23:04:04.491Z,100
2022-07-27T23:14:04.485Z,100
2022-07-27T23:24:04.890Z,100
2022-07-27T23:34:04.509Z,100
2022-07-27T23:44:04.518Z,100
2022-07-27T23:54:04.451Z,100
